sim
Sign-in with your pilot id or email,
or register
Callsign
Passwort

Schedule Details

Flight Number: EWG1901 (2)
Departure: Catania Fontanarossa Airport (LICC) at 07:40
Arrival: Munich Airport (EDDM) at 10:05
Route: Eurowings Passenger Schedule. Enter filed route here before submitting Pirep.

Weather Information
Getting current METAR information for LICC 231550Z VRB06KT 9999 -RA FEW020 SCT050 24/22 Q1013 RETSRA
Getting current METAR information for EDDM 231550Z 27006KT 9999 FEW040 19/14 Q1009 NOSIG

Schedule Frequency

Route Map